sensor_id;sensor_type;location;lat;lon;timestamp;P1;durP1;ratioP1;P2;durP2;ratioP2
23117;SDS011;11728;50.624;6.014;2023-02-16T00:03:54;28.00;;;16.00;;
23117;SDS011;11728;50.624;6.014;2023-02-16T00:08:56;27.58;;;16.52;;
23117;SDS011;11728;50.624;6.014;2023-02-16T00:13:56;28.85;;;15.55;;
23117;SDS011;11728;50.624;6.014;2023-02-16T00:18:56;25.20;;;14.38;;
23117;SDS011;11728;50.624;6.014;2023-02-16T00:23:57;24.20;;;15.03;;
23117;SDS011;11728;50.624;6.014;2023-02-16T00:28:57;27.05;;;15.68;;
23117;SDS011;11728;50.624;6.014;2023-02-16T00:33:58;24.52;;;14.68;;
23117;SDS011;11728;50.624;6.014;2023-02-16T00:39:05;26.83;;;13.68;;
23117;SDS011;11728;50.624;6.014;2023-02-16T00:44:05;27.67;;;14.90;;
23117;SDS011;11728;50.624;6.014;2023-02-16T00:49:15;21.02;;;13.25;;
23117;SDS011;11728;50.624;6.014;2023-02-16T00:54:17;23.00;;;14.05;;
23117;SDS011;11728;50.624;6.014;2023-02-16T00:59:18;22.55;;;13.18;;
23117;SDS011;11728;50.624;6.014;2023-02-16T01:04:22;21.88;;;13.30;;
23117;SDS011;11728;50.624;6.014;2023-02-16T01:09:23;26.77;;;13.48;;
23117;SDS011;11728;50.624;6.014;2023-02-16T01:14:42;27.70;;;14.43;;
23117;SDS011;11728;50.624;6.014;2023-02-16T01:19:46;21.20;;;12.77;;
23117;SDS011;11728;50.624;6.014;2023-02-16T01:24:46;22.90;;;13.57;;
23117;SDS011;11728;50.624;6.014;2023-02-16T01:29:46;25.47;;;14.40;;
23117;SDS011;11728;50.624;6.014;2023-02-16T01:34:47;24.85;;;13.88;;
23117;SDS011;11728;50.624;6.014;2023-02-16T01:39:47;23.10;;;14.27;;
23117;SDS011;11728;50.624;6.014;2023-02-16T01:44:51;25.10;;;14.57;;
23117;SDS011;11728;50.624;6.014;2023-02-16T01:49:57;26.15;;;14.27;;
23117;SDS011;11728;50.624;6.014;2023-02-16T01:55:11;25.27;;;14.90;;
23117;SDS011;11728;50.624;6.014;2023-02-16T02:00:27;28.35;;;15.48;;
23117;SDS011;11728;50.624;6.014;2023-02-16T02:05:30;26.92;;;14.93;;
23117;SDS011;11728;50.624;6.014;2023-02-16T02:15:51;26.90;;;15.50;;
23117;SDS011;11728;50.624;6.014;2023-02-16T02:20:59;30.48;;;16.33;;
23117;SDS011;11728;50.624;6.014;2023-02-16T02:37:31;28.98;;;16.33;;
23117;SDS011;11728;50.624;6.014;2023-02-16T02:47:53;29.20;;;16.40;;
23117;SDS011;11728;50.624;6.014;2023-02-16T02:52:54;28.88;;;15.80;;
23117;SDS011;11728;50.624;6.014;2023-02-16T02:57:57;30.88;;;16.75;;
23117;SDS011;11728;50.624;6.014;2023-02-16T03:08:40;26.40;;;16.02;;
23117;SDS011;11728;50.624;6.014;2023-02-16T03:13:50;27.77;;;16.20;;
23117;SDS011;11728;50.624;6.014;2023-02-16T03:18:55;26.30;;;16.70;;
23117;SDS011;11728;50.624;6.014;2023-02-16T03:24:18;27.35;;;16.33;;
23117;SDS011;11728;50.624;6.014;2023-02-16T03:29:42;26.65;;;15.35;;
23117;SDS011;11728;50.624;6.014;2023-02-16T03:34:46;24.90;;;14.93;;
23117;SDS011;11728;50.624;6.014;2023-02-16T03:39:47;23.33;;;15.02;;
23117;SDS011;11728;50.624;6.014;2023-02-16T03:50:07;26.08;;;14.68;;
23117;SDS011;11728;50.624;6.014;2023-02-16T03:55:07;25.27;;;14.77;;
23117;SDS011;11728;50.624;6.014;2023-02-16T04:00:08;23.20;;;14.18;;
23117;SDS011;11728;50.624;6.014;2023-02-16T04:05:09;25.63;;;15.05;;
23117;SDS011;11728;50.624;6.014;2023-02-16T04:10:09;24.43;;;15.27;;
23117;SDS011;11728;50.624;6.014;2023-02-16T04:15:14;22.03;;;14.27;;
23117;SDS011;11728;50.624;6.014;2023-02-16T04:20:17;26.15;;;14.55;;
23117;SDS011;11728;50.624;6.014;2023-02-16T04:25:19;25.85;;;14.60;;
23117;SDS011;11728;50.624;6.014;2023-02-16T04:30:21;26.30;;;14.65;;
23117;SDS011;11728;50.624;6.014;2023-02-16T04:35:24;21.85;;;13.15;;
23117;SDS011;11728;50.624;6.014;2023-02-16T04:40:24;21.55;;;13.88;;
23117;SDS011;11728;50.624;6.014;2023-02-16T04:45:25;23.08;;;14.57;;
23117;SDS011;11728;50.624;6.014;2023-02-16T04:50:25;21.70;;;13.93;;
23117;SDS011;11728;50.624;6.014;2023-02-16T04:55:25;19.33;;;12.88;;
23117;SDS011;11728;50.624;6.014;2023-02-16T05:00:26;22.83;;;13.10;;
23117;SDS011;11728;50.624;6.014;2023-02-16T05:05:26;22.02;;;13.10;;
23117;SDS011;11728;50.624;6.014;2023-02-16T05:10:27;23.02;;;14.00;;
23117;SDS011;11728;50.624;6.014;2023-02-16T05:15:27;22.38;;;12.38;;
23117;SDS011;11728;50.624;6.014;2023-02-16T05:20:28;22.80;;;14.10;;
23117;SDS011;11728;50.624;6.014;2023-02-16T05:25:47;21.87;;;13.53;;
23117;SDS011;11728;50.624;6.014;2023-02-16T05:30:47;20.73;;;12.43;;
23117;SDS011;11728;50.624;6.014;2023-02-16T05:35:47;22.60;;;13.02;;
23117;SDS011;11728;50.624;6.014;2023-02-16T05:40:48;21.23;;;12.85;;
23117;SDS011;11728;50.624;6.014;2023-02-16T05:45:48;23.25;;;14.07;;
23117;SDS011;11728;50.624;6.014;2023-02-16T05:50:48;19.97;;;12.67;;
23117;SDS011;11728;50.624;6.014;2023-02-16T05:55:49;19.03;;;12.93;;
23117;SDS011;11728;50.624;6.014;2023-02-16T06:00:49;21.23;;;12.63;;
23117;SDS011;11728;50.624;6.014;2023-02-16T06:05:53;19.60;;;11.73;;
23117;SDS011;11728;50.624;6.014;2023-02-16T06:10:55;19.48;;;11.68;;
23117;SDS011;11728;50.624;6.014;2023-02-16T06:15:55;19.38;;;11.95;;
23117;SDS011;11728;50.624;6.014;2023-02-16T06:20:56;15.70;;;10.57;;
23117;SDS011;11728;50.624;6.014;2023-02-16T06:25:56;17.67;;;11.10;;
23117;SDS011;11728;50.624;6.014;2023-02-16T06:30:57;16.77;;;10.07;;
23117;SDS011;11728;50.624;6.014;2023-02-16T06:35:57;20.47;;;10.80;;
23117;SDS011;11728;50.624;6.014;2023-02-16T06:40:57;19.48;;;11.65;;
23117;SDS011;11728;50.624;6.014;2023-02-16T06:45:58;17.20;;;11.00;;
23117;SDS011;11728;50.624;6.014;2023-02-16T06:50:58;21.98;;;11.70;;
23117;SDS011;11728;50.624;6.014;2023-02-16T06:55:58;20.20;;;12.40;;
23117;SDS011;11728;50.624;6.014;2023-02-16T07:00:59;18.43;;;12.13;;
23117;SDS011;11728;50.624;6.014;2023-02-16T07:05:59;20.67;;;12.57;;
23117;SDS011;11728;50.624;6.014;2023-02-16T07:11:00;23.55;;;13.10;;
23117;SDS011;11728;50.624;6.014;2023-02-16T07:16:04;21.80;;;13.53;;
23117;SDS011;11728;50.624;6.014;2023-02-16T07:21:05;22.75;;;12.85;;
23117;SDS011;11728;50.624;6.014;2023-02-16T07:26:06;21.60;;;13.13;;
23117;SDS011;11728;50.624;6.014;2023-02-16T07:31:07;19.00;;;12.82;;
23117;SDS011;11728;50.624;6.014;2023-02-16T07:36:10;19.95;;;12.82;;
23117;SDS011;11728;50.624;6.014;2023-02-16T07:41:12;19.88;;;12.52;;
23117;SDS011;11728;50.624;6.014;2023-02-16T07:46:12;18.67;;;12.57;;
23117;SDS011;11728;50.624;6.014;2023-02-16T07:51:18;22.77;;;13.97;;
23117;SDS011;11728;50.624;6.014;2023-02-16T07:56:21;22.45;;;13.80;;
23117;SDS011;11728;50.624;6.014;2023-02-16T08:01:23;20.60;;;13.60;;
23117;SDS011;11728;50.624;6.014;2023-02-16T08:06:24;24.13;;;14.70;;
23117;SDS011;11728;50.624;6.014;2023-02-16T08:11:24;22.50;;;14.90;;
23117;SDS011;11728;50.624;6.014;2023-02-16T08:16:26;19.42;;;14.05;;
23117;SDS011;11728;50.624;6.014;2023-02-16T08:21:28;25.50;;;15.10;;
23117;SDS011;11728;50.624;6.014;2023-02-16T08:26:35;24.45;;;14.57;;
23117;SDS011;11728;50.624;6.014;2023-02-16T08:31:38;21.40;;;13.85;;
23117;SDS011;11728;50.624;6.014;2023-02-16T08:36:39;23.55;;;13.60;;
23117;SDS011;11728;50.624;6.014;2023-02-16T08:41:41;25.77;;;13.73;;
23117;SDS011;11728;50.624;6.014;2023-02-16T08:46:43;24.02;;;14.52;;
23117;SDS011;11728;50.624;6.014;2023-02-16T08:51:47;21.50;;;14.50;;
23117;SDS011;11728;50.624;6.014;2023-02-16T08:56:49;20.33;;;13.52;;
23117;SDS011;11728;50.624;6.014;2023-02-16T09:01:50;17.63;;;12.73;;
23117;SDS011;11728;50.624;6.014;2023-02-16T09:06:50;20.60;;;12.67;;
23117;SDS011;11728;50.624;6.014;2023-02-16T09:11:51;20.90;;;12.63;;
23117;SDS011;11728;50.624;6.014;2023-02-16T09:16:51;19.20;;;13.82;;
23117;SDS011;11728;50.624;6.014;2023-02-16T09:21:52;21.52;;;13.90;;
23117;SDS011;11728;50.624;6.014;2023-02-16T09:26:55;19.70;;;12.82;;
23117;SDS011;11728;50.624;6.014;2023-02-16T09:31:55;18.58;;;11.93;;
23117;SDS011;11728;50.624;6.014;2023-02-16T09:36:56;20.73;;;12.87;;
23117;SDS011;11728;50.624;6.014;2023-02-16T09:42:05;20.60;;;11.63;;
23117;SDS011;11728;50.624;6.014;2023-02-16T09:47:24;20.83;;;11.52;;
23117;SDS011;11728;50.624;6.014;2023-02-16T09:57:45;21.05;;;14.02;;
23117;SDS011;11728;50.624;6.014;2023-02-16T10:08:46;23.92;;;12.65;;
23117;SDS011;11728;50.624;6.014;2023-02-16T10:13:50;19.10;;;13.00;;
23117;SDS011;11728;50.624;6.014;2023-02-16T10:18:56;18.73;;;12.55;;
23117;SDS011;11728;50.624;6.014;2023-02-16T10:24:01;21.88;;;12.65;;
23117;SDS011;11728;50.624;6.014;2023-02-16T10:29:10;19.45;;;12.43;;
23117;SDS011;11728;50.624;6.014;2023-02-16T10:34:26;21.30;;;12.82;;
23117;SDS011;11728;50.624;6.014;2023-02-16T10:50:26;18.50;;;12.93;;
23117;SDS011;11728;50.624;6.014;2023-02-16T10:55:32;20.73;;;13.98;;
23117;SDS011;11728;50.624;6.014;2023-02-16T11:00:36;17.92;;;12.75;;
23117;SDS011;11728;50.624;6.014;2023-02-16T11:06:17;23.30;;;14.40;;
23117;SDS011;11728;50.624;6.014;2023-02-16T11:21:43;19.25;;;14.02;;
23117;SDS011;11728;50.624;6.014;2023-02-16T11:32:25;24.30;;;13.63;;
23117;SDS011;11728;50.624;6.014;2023-02-16T11:37:29;19.40;;;12.52;;
23117;SDS011;11728;50.624;6.014;2023-02-16T11:42:33;20.17;;;13.30;;
23117;SDS011;11728;50.624;6.014;2023-02-16T11:47:50;21.15;;;14.02;;
23117;SDS011;11728;50.624;6.014;2023-02-16T11:52:57;19.60;;;13.95;;
23117;SDS011;11728;50.624;6.014;2023-02-16T11:58:20;36.42;;;23.92;;
23117;SDS011;11728;50.624;6.014;2023-02-16T12:03:27;22.80;;;16.50;;
23117;SDS011;11728;50.624;6.014;2023-02-16T12:14:02;24.35;;;14.50;;
23117;SDS011;11728;50.624;6.014;2023-02-16T12:29:53;24.83;;;16.05;;
23117;SDS011;11728;50.624;6.014;2023-02-16T12:45:13;17.55;;;12.77;;
23117;SDS011;11728;50.624;6.014;2023-02-16T12:50:28;22.45;;;13.40;;
23117;SDS011;11728;50.624;6.014;2023-02-16T12:55:32;19.95;;;12.98;;
23117;SDS011;11728;50.624;6.014;2023-02-16T13:06:06;19.25;;;12.82;;
23117;SDS011;11728;50.624;6.014;2023-02-16T13:11:15;20.67;;;11.65;;
23117;SDS011;11728;50.624;6.014;2023-02-16T13:16:40;16.08;;;9.98;;
23117;SDS011;11728;50.624;6.014;2023-02-16T13:32:25;15.90;;;9.63;;
23117;SDS011;11728;50.624;6.014;2023-02-16T13:38:00;14.38;;;9.20;;
23117;SDS011;11728;50.624;6.014;2023-02-16T13:48:36;14.32;;;9.30;;
23117;SDS011;11728;50.624;6.014;2023-02-16T13:54:03;16.65;;;9.00;;
23117;SDS011;11728;50.624;6.014;2023-02-16T14:09:30;11.45;;;6.38;;
23117;SDS011;11728;50.624;6.014;2023-02-16T14:19:39;9.63;;;5.35;;
23117;SDS011;11728;50.624;6.014;2023-02-16T14:25:03;9.82;;;5.72;;
23117;SDS011;11728;50.624;6.014;2023-02-16T14:40:59;11.40;;;5.47;;
23117;SDS011;11728;50.624;6.014;2023-02-16T14:56:46;16.30;;;6.75;;
23117;SDS011;11728;50.624;6.014;2023-02-16T15:01:53;12.60;;;6.65;;
23117;SDS011;11728;50.624;6.014;2023-02-16T15:06:53;13.03;;;6.33;;
23117;SDS011;11728;50.624;6.014;2023-02-16T15:12:02;11.73;;;6.30;;
23117;SDS011;11728;50.624;6.014;2023-02-16T15:22:34;11.35;;;6.50;;
23117;SDS011;11728;50.624;6.014;2023-02-16T15:27:37;14.20;;;6.07;;
23117;SDS011;11728;50.624;6.014;2023-02-16T15:32:38;14.33;;;6.27;;
23117;SDS011;11728;50.624;6.014;2023-02-16T15:37:38;9.15;;;5.28;;
23117;SDS011;11728;50.624;6.014;2023-02-16T15:42:40;11.38;;;6.18;;
23117;SDS011;11728;50.624;6.014;2023-02-16T15:47:43;11.50;;;5.93;;
23117;SDS011;11728;50.624;6.014;2023-02-16T15:52:43;11.63;;;5.87;;
23117;SDS011;11728;50.624;6.014;2023-02-16T15:57:44;9.83;;;5.87;;
23117;SDS011;11728;50.624;6.014;2023-02-16T16:02:48;13.23;;;6.03;;
23117;SDS011;11728;50.624;6.014;2023-02-16T16:07:52;10.82;;;6.25;;
23117;SDS011;11728;50.624;6.014;2023-02-16T16:12:58;14.48;;;6.38;;
23117;SDS011;11728;50.624;6.014;2023-02-16T16:18:02;14.75;;;5.70;;
23117;SDS011;11728;50.624;6.014;2023-02-16T16:23:19;12.80;;;6.30;;
23117;SDS011;11728;50.624;6.014;2023-02-16T16:33:26;15.73;;;7.47;;
23117;SDS011;11728;50.624;6.014;2023-02-16T16:38:47;11.77;;;7.53;;
23117;SDS011;11728;50.624;6.014;2023-02-16T16:43:54;14.82;;;7.20;;
23117;SDS011;11728;50.624;6.014;2023-02-16T16:48:59;12.23;;;7.05;;
23117;SDS011;11728;50.624;6.014;2023-02-16T16:54:04;10.27;;;6.20;;
23117;SDS011;11728;50.624;6.014;2023-02-16T16:59:23;13.43;;;8.52;;
23117;SDS011;11728;50.624;6.014;2023-02-16T17:04:23;12.40;;;7.43;;
23117;SDS011;11728;50.624;6.014;2023-02-16T17:09:25;15.70;;;9.15;;
23117;SDS011;11728;50.624;6.014;2023-02-16T17:14:25;14.73;;;8.17;;
23117;SDS011;11728;50.624;6.014;2023-02-16T17:19:26;11.77;;;6.20;;
23117;SDS011;11728;50.624;6.014;2023-02-16T17:24:28;11.82;;;6.95;;
23117;SDS011;11728;50.624;6.014;2023-02-16T17:29:28;10.98;;;5.82;;
23117;SDS011;11728;50.624;6.014;2023-02-16T17:34:29;10.32;;;4.90;;
23117;SDS011;11728;50.624;6.014;2023-02-16T17:39:29;9.67;;;4.90;;
23117;SDS011;11728;50.624;6.014;2023-02-16T17:44:30;11.55;;;4.95;;
23117;SDS011;11728;50.624;6.014;2023-02-16T17:49:30;15.37;;;9.73;;
23117;SDS011;11728;50.624;6.014;2023-02-16T17:54:30;16.27;;;10.03;;
23117;SDS011;11728;50.624;6.014;2023-02-16T17:59:31;8.10;;;4.00;;
23117;SDS011;11728;50.624;6.014;2023-02-16T18:04:32;8.10;;;3.97;;
23117;SDS011;11728;50.624;6.014;2023-02-16T18:09:34;7.88;;;4.50;;
23117;SDS011;11728;50.624;6.014;2023-02-16T18:14:35;9.10;;;5.47;;
23117;SDS011;11728;50.624;6.014;2023-02-16T18:19:35;9.32;;;5.15;;
23117;SDS011;11728;50.624;6.014;2023-02-16T18:24:36;13.77;;;5.65;;
23117;SDS011;11728;50.624;6.014;2023-02-16T18:29:36;13.05;;;6.40;;
23117;SDS011;11728;50.624;6.014;2023-02-16T18:34:37;11.98;;;6.57;;
23117;SDS011;11728;50.624;6.014;2023-02-16T18:39:37;10.47;;;6.87;;
23117;SDS011;11728;50.624;6.014;2023-02-16T18:44:39;11.10;;;7.20;;
23117;SDS011;11728;50.624;6.014;2023-02-16T18:49:40;25.67;;;10.35;;
23117;SDS011;11728;50.624;6.014;2023-02-16T18:54:41;16.15;;;8.20;;
23117;SDS011;11728;50.624;6.014;2023-02-16T18:59:41;10.57;;;7.97;;
23117;SDS011;11728;50.624;6.014;2023-02-16T19:04:42;14.07;;;9.07;;
23117;SDS011;11728;50.624;6.014;2023-02-16T19:09:42;15.93;;;9.03;;
23117;SDS011;11728;50.624;6.014;2023-02-16T19:14:42;20.77;;;11.23;;
23117;SDS011;11728;50.624;6.014;2023-02-16T19:19:43;14.10;;;8.40;;
23117;SDS011;11728;50.624;6.014;2023-02-16T19:24:43;20.52;;;12.52;;
23117;SDS011;11728;50.624;6.014;2023-02-16T19:29:44;17.10;;;10.73;;
23117;SDS011;11728;50.624;6.014;2023-02-16T19:34:46;15.13;;;9.98;;
23117;SDS011;11728;50.624;6.014;2023-02-16T19:39:46;16.55;;;9.20;;
23117;SDS011;11728;50.624;6.014;2023-02-16T19:44:47;17.38;;;9.73;;
23117;SDS011;11728;50.624;6.014;2023-02-16T19:49:47;17.80;;;11.47;;
23117;SDS011;11728;50.624;6.014;2023-02-16T19:54:47;16.90;;;10.63;;
23117;SDS011;11728;50.624;6.014;2023-02-16T19:59:48;18.40;;;10.95;;
23117;SDS011;11728;50.624;6.014;2023-02-16T20:04:48;20.85;;;12.38;;
23117;SDS011;11728;50.624;6.014;2023-02-16T20:09:49;18.63;;;11.57;;
23117;SDS011;11728;50.624;6.014;2023-02-16T20:14:49;20.47;;;12.93;;
23117;SDS011;11728;50.624;6.014;2023-02-16T20:19:50;18.63;;;12.50;;
23117;SDS011;11728;50.624;6.014;2023-02-16T20:24:50;20.48;;;11.77;;
23117;SDS011;11728;50.624;6.014;2023-02-16T20:29:50;21.90;;;12.75;;
23117;SDS011;11728;50.624;6.014;2023-02-16T20:34:51;19.93;;;12.67;;
23117;SDS011;11728;50.624;6.014;2023-02-16T20:39:51;22.60;;;12.55;;
23117;SDS011;11728;50.624;6.014;2023-02-16T20:44:52;20.60;;;11.33;;
23117;SDS011;11728;50.624;6.014;2023-02-16T20:49:52;22.27;;;11.53;;
23117;SDS011;11728;50.624;6.014;2023-02-16T20:54:53;20.00;;;11.77;;
23117;SDS011;11728;50.624;6.014;2023-02-16T20:59:53;19.23;;;11.70;;
23117;SDS011;11728;50.624;6.014;2023-02-16T21:04:54;19.08;;;11.35;;
23117;SDS011;11728;50.624;6.014;2023-02-16T21:09:55;17.95;;;10.43;;
23117;SDS011;11728;50.624;6.014;2023-02-16T21:14:55;22.33;;;11.43;;
23117;SDS011;11728;50.624;6.014;2023-02-16T21:19:56;17.63;;;11.10;;
23117;SDS011;11728;50.624;6.014;2023-02-16T21:24:56;16.58;;;10.18;;
23117;SDS011;11728;50.624;6.014;2023-02-16T21:29:57;15.10;;;10.45;;
23117;SDS011;11728;50.624;6.014;2023-02-16T21:34:57;17.93;;;10.80;;
23117;SDS011;11728;50.624;6.014;2023-02-16T21:39:58;15.55;;;10.93;;
23117;SDS011;11728;50.624;6.014;2023-02-16T21:45:17;18.17;;;10.38;;
23117;SDS011;11728;50.624;6.014;2023-02-16T21:50:17;17.88;;;10.45;;
23117;SDS011;11728;50.624;6.014;2023-02-16T21:55:17;17.43;;;9.97;;
23117;SDS011;11728;50.624;6.014;2023-02-16T22:00:37;17.25;;;10.93;;
23117;SDS011;11728;50.624;6.014;2023-02-16T22:05:38;17.92;;;10.20;;
23117;SDS011;11728;50.624;6.014;2023-02-16T22:10:38;18.95;;;10.15;;
23117;SDS011;11728;50.624;6.014;2023-02-16T22:15:39;16.40;;;9.90;;
23117;SDS011;11728;50.624;6.014;2023-02-16T22:20:40;20.50;;;10.33;;
23117;SDS011;11728;50.624;6.014;2023-02-16T22:25:40;16.70;;;9.98;;
23117;SDS011;11728;50.624;6.014;2023-02-16T22:30:40;17.20;;;9.50;;
23117;SDS011;11728;50.624;6.014;2023-02-16T22:35:41;16.98;;;9.68;;
23117;SDS011;11728;50.624;6.014;2023-02-16T22:40:41;18.40;;;9.20;;
23117;SDS011;11728;50.624;6.014;2023-02-16T22:45:41;19.10;;;9.30;;
23117;SDS011;11728;50.624;6.014;2023-02-16T22:50:42;18.53;;;9.60;;
23117;SDS011;11728;50.624;6.014;2023-02-16T22:55:42;14.17;;;9.03;;
23117;SDS011;11728;50.624;6.014;2023-02-16T23:00:46;14.13;;;9.33;;
23117;SDS011;11728;50.624;6.014;2023-02-16T23:05:47;11.82;;;8.85;;
23117;SDS011;11728;50.624;6.014;2023-02-16T23:10:48;13.68;;;8.45;;
23117;SDS011;11728;50.624;6.014;2023-02-16T23:16:08;15.73;;;8.60;;
23117;SDS011;11728;50.624;6.014;2023-02-16T23:21:15;15.90;;;9.73;;
23117;SDS011;11728;50.624;6.014;2023-02-16T23:26:21;16.85;;;8.93;;
23117;SDS011;11728;50.624;6.014;2023-02-16T23:31:23;14.70;;;8.68;;
23117;SDS011;11728;50.624;6.014;2023-02-16T23:36:23;15.47;;;8.70;;
23117;SDS011;11728;50.624;6.014;2023-02-16T23:41:24;12.80;;;7.83;;
23117;SDS011;11728;50.624;6.014;2023-02-16T23:46:24;14.37;;;8.67;;
23117;SDS011;11728;50.624;6.014;2023-02-16T23:51:24;12.13;;;8.53;;
23117;SDS011;11728;50.624;6.014;2023-02-16T23:56:26;10.65;;;7.53;;
